Time,TemperatureF,DewpointF,PressureIn,WindDirection,WindDirectionDegrees,WindSpeedMPH,WindSpeedGustMPH,Humidity,HourlyPrecipIn,Conditions,Clouds,dailyrainin,SolarRadiationWatts/m^2,SoftwareType,DateUTC
2013-04-12 00:03:00,60.0,59.0,-100.00,South,172,1.0,12.0,96,0.25,,,0.43,0.000000,,2013-04-12 04:03:00,
2013-04-12 00:33:00,59.0,58.0,-100.00,SE,134,2.0,7.0,98,0.27,,,0.70,0.000000,,2013-04-12 04:33:00,
2013-04-12 00:43:00,59.0,58.0,-100.00,SE,134,2.0,7.0,98,0.27,,,0.70,0.000000,,2013-04-12 04:43:00,
2013-04-12 00:53:00,59.0,58.0,-100.00,SE,134,2.0,7.0,98,0.27,,,0.70,0.000000,,2013-04-12 04:53:00,
2013-04-12 01:03:00,59.0,58.0,-100.00,SE,134,2.0,7.0,98,0.27,,,0.70,0.000000,,2013-04-12 05:03:00,
2013-04-12 01:32:00,60.0,59.0,-100.00,SE,126,6.0,11.0,95,0.26,,,0.96,0.000000,,2013-04-12 05:32:00,
2013-04-12 01:42:00,60.0,59.0,-100.00,SE,126,6.0,11.0,95,0.26,,,0.96,0.000000,,2013-04-12 05:42:00,
2013-04-12 01:52:00,60.0,59.0,-100.00,SE,126,6.0,11.0,95,0.26,,,0.96,0.000000,,2013-04-12 05:52:00,
2013-04-12 02:02:00,60.0,59.0,-100.00,SE,126,6.0,11.0,95,0.26,,,0.96,0.000000,,2013-04-12 06:02:00,
2013-04-12 02:32:00,59.0,58.0,-100.00,East,82,2.0,8.0,95,0.21,,,1.17,0.000000,,2013-04-12 06:32:00,
2013-04-12 02:42:00,59.0,58.0,-100.00,East,82,2.0,8.0,95,0.21,,,1.17,0.000000,,2013-04-12 06:42:00,
2013-04-12 02:52:00,59.0,58.0,-100.00,East,82,2.0,8.0,95,0.21,,,1.17,0.000000,,2013-04-12 06:52:00,
2013-04-12 03:02:00,59.0,58.0,-100.00,East,82,2.0,8.0,95,0.21,,,1.17,0.000000,,2013-04-12 07:02:00,
2013-04-12 03:32:00,60.0,55.0,-100.00,SSW,202,4.0,14.0,85,0.12,,,1.29,0.000000,,2013-04-12 07:32:00,
2013-04-12 03:42:00,60.0,55.0,-100.00,SSW,202,4.0,14.0,85,0.12,,,1.29,0.000000,,2013-04-12 07:42:00,
2013-04-12 03:52:00,60.0,55.0,-100.00,SSW,202,4.0,14.0,85,0.12,,,1.29,0.000000,,2013-04-12 07:52:00,
2013-04-12 04:03:00,60.0,55.0,-100.00,SSW,202,4.0,14.0,85,0.12,,,1.29,0.000000,,2013-04-12 08:03:00,
2013-04-12 04:32:00,60.0,57.0,-100.00,WSW,243,3.0,13.0,90,0.08,,,1.37,0.000000,,2013-04-12 08:32:00,
2013-04-12 04:43:00,60.0,57.0,-100.00,WSW,243,3.0,13.0,90,0.08,,,1.37,0.000000,,2013-04-12 08:43:00,
2013-04-12 04:53:00,60.0,57.0,-100.00,WSW,243,3.0,13.0,90,0.08,,,1.37,0.000000,,2013-04-12 08:53:00,
2013-04-12 05:02:00,60.0,57.0,-100.00,WSW,243,3.0,13.0,90,0.08,,,1.37,0.000000,,2013-04-12 09:02:00,
2013-04-12 05:33:00,60.0,58.0,-100.00,West,262,3.0,14.0,94,0.08,,,1.45,0.000000,,2013-04-12 09:33:00,
2013-04-12 05:44:00,60.0,58.0,-100.00,West,262,3.0,14.0,94,0.08,,,1.45,0.000000,,2013-04-12 09:44:00,
2013-04-12 05:53:00,60.0,58.0,-100.00,West,262,3.0,14.0,94,0.08,,,1.45,0.000000,,2013-04-12 09:53:00,
2013-04-12 06:03:00,60.0,58.0,-100.00,West,262,3.0,14.0,94,0.08,,,1.45,0.000000,,2013-04-12 10:03:00,
2013-04-12 06:34:00,57.0,55.0,-100.00,NW,321,4.0,12.0,94,0.09,,,1.54,0.000000,,2013-04-12 10:34:00,
2013-04-12 06:43:00,57.0,55.0,-100.00,NW,321,4.0,12.0,94,0.09,,,1.54,0.000000,,2013-04-12 10:43:00,
2013-04-12 06:53:00,57.0,55.0,-100.00,NW,321,4.0,12.0,94,0.09,,,1.54,0.000000,,2013-04-12 10:53:00,
2013-04-12 07:03:00,57.0,55.0,-100.00,NW,321,4.0,12.0,94,0.09,,,1.54,0.000000,,2013-04-12 11:03:00,
2013-04-12 07:33:00,55.0,53.0,-100.00,North,2,5.0,10.0,94,0.08,,,1.62,0.000000,,2013-04-12 11:33:00,
2013-04-12 07:43:00,55.0,53.0,-100.00,North,2,5.0,10.0,94,0.08,,,1.62,0.000000,,2013-04-12 11:43:00,
2013-04-12 07:52:00,55.0,53.0,-100.00,North,2,5.0,10.0,94,0.08,,,1.62,0.000000,,2013-04-12 11:52:00,
2013-04-12 08:03:00,55.0,53.0,-100.00,North,2,5.0,10.0,94,0.08,,,1.62,0.000000,,2013-04-12 12:03:00,
2013-04-12 08:33:00,53.0,51.0,-100.00,NNE,25,4.0,9.0,92,0.06,,,1.68,21.000000,,2013-04-12 12:33:00,
2013-04-12 08:43:00,53.0,51.0,-100.00,NNE,25,4.0,9.0,92,0.06,,,1.68,21.000000,,2013-04-12 12:43:00,
2013-04-12 08:54:00,53.0,51.0,-100.00,NNE,25,4.0,9.0,92,0.06,,,1.68,21.000000,,2013-04-12 12:54:00,
2013-04-12 09:03:00,53.0,51.0,-100.00,NNE,25,4.0,9.0,92,0.06,,,1.68,21.000000,,2013-04-12 13:03:00,
2013-04-12 09:32:00,54.0,51.0,-100.00,NNW,343,5.0,12.0,90,0.05,,,1.73,104.000000,,2013-04-12 13:32:00,
2013-04-12 09:43:00,54.0,51.0,-100.00,NNW,343,5.0,12.0,90,0.05,,,1.73,104.000000,,2013-04-12 13:43:00,
2013-04-12 09:53:00,54.0,51.0,-100.00,NNW,343,5.0,12.0,90,0.05,,,1.73,104.000000,,2013-04-12 13:53:00,
2013-04-12 10:03:00,54.0,51.0,-100.00,NNW,343,5.0,12.0,90,0.05,,,1.73,104.000000,,2013-04-12 14:03:00,
2013-04-12 10:33:00,58.0,53.0,-100.00,NE,54,3.0,11.0,82,0.04,,,1.77,392.000000,,2013-04-12 14:33:00,
2013-04-12 10:43:00,58.0,53.0,-100.00,NE,54,3.0,11.0,82,0.04,,,1.77,392.000000,,2013-04-12 14:43:00,
2013-04-12 10:54:00,58.0,53.0,-100.00,NE,54,3.0,11.0,82,0.04,,,1.77,392.000000,,2013-04-12 14:54:00,
2013-04-12 11:03:00,58.0,53.0,-100.00,NE,54,3.0,11.0,82,0.04,,,1.77,392.000000,,2013-04-12 15:03:00,
2013-04-12 11:33:00,56.0,50.0,-100.00,NW,315,7.0,12.0,80,0.05,,,-99.99,634.000000,,2013-04-12 15:33:00,
2013-04-12 11:43:00,56.0,50.0,-100.00,NW,315,7.0,12.0,80,0.05,,,-99.99,634.000000,,2013-04-12 15:43:00,
2013-04-12 11:53:00,56.0,50.0,-100.00,NW,315,7.0,12.0,80,0.05,,,-99.99,634.000000,,2013-04-12 15:53:00,
2013-04-12 12:04:00,56.0,50.0,-100.00,NW,315,7.0,12.0,80,0.05,,,-99.99,634.000000,,2013-04-12 16:04:00,
2013-04-12 12:34:00,59.0,50.0,-100.00,NW,319,6.0,14.0,71,0.01,,,-99.99,961.000000,,2013-04-12 16:34:00,
2013-04-12 12:43:00,59.0,50.0,-100.00,NW,319,6.0,14.0,71,0.01,,,-99.99,961.000000,,2013-04-12 16:43:00,
2013-04-12 12:53:00,59.0,50.0,-100.00,NW,319,6.0,14.0,71,0.01,,,-99.99,961.000000,,2013-04-12 16:53:00,
2013-04-12 13:04:00,59.0,50.0,-100.00,NW,319,6.0,14.0,71,0.01,,,-99.99,961.000000,,2013-04-12 17:04:00,
2013-04-12 13:05:00,61.0,47.0,-100.00,NW,307,6.0,15.0,61,0.00,,,1.83,1066.000000,,2013-04-12 17:05:00,
2013-04-12 13:34:00,61.0,47.0,-100.00,NW,307,6.0,15.0,61,0.00,,,1.83,1066.000000,,2013-04-12 17:34:00,
2013-04-12 13:47:00,61.0,47.0,-100.00,NW,307,6.0,15.0,61,0.00,,,1.83,1066.000000,,2013-04-12 17:47:00,
2013-04-12 14:05:00,63.0,46.0,-100.00,South,188,3.0,17.0,53,0.00,,,1.83,1101.000000,,2013-04-12 18:05:00,
2013-04-12 15:33:00,65.0,41.0,-100.00,NE,48,5.0,15.0,42,0.00,,,1.83,1071.000000,,2013-04-12 19:33:00,
2013-04-12 15:43:00,65.0,41.0,-100.00,NE,48,5.0,15.0,42,0.00,,,1.83,1071.000000,,2013-04-12 19:43:00,
2013-04-12 15:53:00,65.0,41.0,-100.00,NE,48,5.0,15.0,42,0.00,,,1.83,1071.000000,,2013-04-12 19:53:00,
2013-04-12 16:02:00,65.0,41.0,-100.00,NE,48,5.0,15.0,42,0.00,,,1.83,1071.000000,,2013-04-12 20:02:00,
2013-04-12 16:33:00,67.0,41.0,-100.00,NW,320,6.0,15.0,38,0.00,,,1.83,971.000000,,2013-04-12 20:33:00,
2013-04-12 16:43:00,67.0,41.0,-100.00,NW,320,6.0,15.0,38,0.00,,,1.83,971.000000,,2013-04-12 20:43:00,
2013-04-12 16:52:00,67.0,41.0,-100.00,NW,320,6.0,15.0,38,0.00,,,1.83,971.000000,,2013-04-12 20:52:00,
2013-04-12 17:03:00,67.0,41.0,-100.00,NW,320,6.0,15.0,38,0.00,,,1.83,971.000000,,2013-04-12 21:03:00,
2013-04-12 17:33:00,67.0,39.0,-100.00,NNE,13,4.0,15.0,36,0.00,,,1.83,804.000000,,2013-04-12 21:33:00,
2013-04-12 17:43:00,67.0,39.0,-100.00,NNE,13,4.0,15.0,36,0.00,,,1.83,804.000000,,2013-04-12 21:43:00,
2013-04-12 17:53:00,67.0,39.0,-100.00,NNE,13,4.0,15.0,36,0.00,,,1.83,804.000000,,2013-04-12 21:53:00,
2013-04-12 18:02:00,67.0,39.0,-100.00,NNE,13,4.0,15.0,36,0.00,,,1.83,804.000000,,2013-04-12 22:02:00,
2013-04-12 18:33:00,65.0,36.0,-100.00,NW,324,6.0,12.0,34,0.00,,,1.83,588.000000,,2013-04-12 22:33:00,
2013-04-12 18:43:00,65.0,36.0,-100.00,NW,324,6.0,12.0,34,0.00,,,1.83,588.000000,,2013-04-12 22:43:00,
2013-04-12 18:52:00,65.0,36.0,-100.00,NW,324,6.0,12.0,34,0.00,,,1.83,588.000000,,2013-04-12 22:52:00,
2013-04-12 19:04:00,65.0,36.0,-100.00,NW,324,6.0,12.0,34,0.00,,,1.83,588.000000,,2013-04-12 23:04:00,
2013-04-12 19:32:00,62.0,36.0,-100.00,NW,318,6.0,15.0,38,0.00,,,1.83,336.000000,,2013-04-12 23:32:00,
2013-04-12 19:42:00,62.0,36.0,-100.00,NW,318,6.0,15.0,38,0.00,,,1.83,336.000000,,2013-04-12 23:42:00,
2013-04-12 19:52:00,62.0,36.0,-100.00,NW,318,6.0,15.0,38,0.00,,,1.83,336.000000,,2013-04-12 23:52:00,
2013-04-12 20:02:00,62.0,36.0,-100.00,NW,318,6.0,15.0,38,0.00,,,1.83,336.000000,,2013-04-13 00:02:00,
2013-04-12 20:32:00,57.0,36.0,-100.00,NNW,334,3.0,11.0,46,0.00,,,-99.99,94.000000,,2013-04-13 00:32:00,
2013-04-12 20:42:00,57.0,36.0,-100.00,NNW,334,3.0,11.0,46,0.00,,,-99.99,94.000000,,2013-04-13 00:42:00,
2013-04-12 20:52:00,57.0,36.0,-100.00,NNW,334,3.0,11.0,46,0.00,,,-99.99,94.000000,,2013-04-13 00:52:00,
2013-04-12 21:02:00,57.0,36.0,-100.00,NNW,334,3.0,11.0,46,0.00,,,-99.99,94.000000,,2013-04-13 01:02:00,
2013-04-12 21:33:00,52.0,36.0,-100.00,WNW,299,1.0,6.0,55,0.00,,,1.78,1.000000,,2013-04-13 01:33:00,
2013-04-12 21:43:00,52.0,36.0,-100.00,WNW,299,1.0,6.0,55,0.00,,,1.78,1.000000,,2013-04-13 01:43:00,
2013-04-12 21:52:00,52.0,36.0,-100.00,WNW,299,1.0,6.0,55,0.00,,,1.78,1.000000,,2013-04-13 01:52:00,
2013-04-12 22:02:00,52.0,36.0,-100.00,WNW,299,1.0,6.0,55,0.00,,,1.78,1.000000,,2013-04-13 02:02:00,
2013-04-12 22:33:00,51.0,38.0,-100.00,East,89,2.0,7.0,62,0.00,,,1.65,0.000000,,2013-04-13 02:33:00,
2013-04-12 22:43:00,51.0,38.0,-100.00,East,89,2.0,7.0,62,0.00,,,1.65,0.000000,,2013-04-13 02:43:00,
2013-04-12 22:53:00,51.0,38.0,-100.00,East,89,2.0,7.0,62,0.00,,,1.65,0.000000,,2013-04-13 02:53:00,
2013-04-12 23:03:00,51.0,38.0,-100.00,East,89,2.0,7.0,62,0.00,,,1.65,0.000000,,2013-04-13 03:03:00,
2013-04-12 23:33:00,49.0,34.0,-100.00,SW,221,0.0,7.0,57,0.00,,,1.40,0.000000,,2013-04-13 03:33:00,
2013-04-12 23:43:00,49.0,34.0,-100.00,SW,221,0.0,7.0,57,0.00,,,1.40,0.000000,,2013-04-13 03:43:00,
2013-04-12 23:54:00,49.0,34.0,-100.00,SW,221,0.0,7.0,57,0.00,,,1.40,0.000000,,2013-04-13 03:54:00,